Lambsburg, Virginia
Current Conditions -  °F | °C
As of 12:55 AM on Friday 31 Oct 2014 (Local Time) from KHLX Reporting Station
Clear Clear  
Wind Chill: 35°   Ceiling: Unl
Heat Index: 39°   Visibility: 10mi
Dew Point: 33°   Wind: 5mph
Humidity: 81%   Direction: 20°NNE
Pressure: 30"   Gusts: NA
Location:  36.59°N, 80.76°W
Report Text: KHLX 310455Z AUTO 02004KT 10SM CLR 04/01 A3000 RMK AO2 T00370007 401230030
Loading
Personal Weather Stations






























Interactive Weather Map
Tropical Storm Tracking
New forecast layout! Learn more

10-Day Weather Forecast

Advertisements
Track Severe Weather on mobile